Time;durP1;ratioP1;P1;durP2;ratioP2;P2;SDS_P1;SDS_P2;PMS_P1;PMS_P2;Temp;Humidity;BMP_temperature;BMP_pressure;BME280_temperature;BME280_humidity;BME280_pressure;Samples;Min_cycle;Max_cycle;Signal;HPM_P1;HPM_P2
2022/06/25 00:05:49;;;;;;;2.10;1.30;;;;;;;24.56;39.63;99990.88;18425637;32;20574;-56
2022/06/25 00:15:54;;;;;;;1.92;1.20;;;;;;;24.17;40.75;99978.31;18425388;32;20092;-56
2022/06/25 00:25:58;;;;;;;3.92;1.50;;;;;;;24.25;41.05;99964.50;18425826;32;20119;-55
2022/06/25 00:36:02;;;;;;;1.87;1.33;;;;;;;24.18;41.27;99982.69;18630001;31;20123;-55
2022/06/25 00:46:05;;;;;;;2.08;1.27;;;;;;;23.86;41.75;99990.97;18630003;31;20338;-55
2022/06/25 00:56:12;;;;;;;4.97;1.50;;;;;;;22.76;45.00;100005.69;18629693;31;20084;-55
2022/06/25 01:06:15;;;;;;;1.58;1.30;;;;;;;23.94;40.83;99999.31;18628535;31;20092;-55
2022/06/25 01:16:21;;;;;;;1.73;1.20;;;;;;;23.95;40.80;100006.34;18628067;31;20088;-55
2022/06/25 01:26:26;;;;;;;2.45;1.33;;;;;;;24.04;40.58;100022.72;18619132;31;20111;-55
2022/06/25 01:36:29;;;;;;;2.80;1.20;;;;;;;24.18;41.26;100017.34;18423286;32;20418;-55
2022/06/25 01:46:34;;;;;;;7.22;1.70;;;;;;;24.07;41.63;100046.53;18421314;32;20093;-55
2022/06/25 01:56:37;;;;;;;2.95;1.52;;;;;;;23.67;48.07;100042.78;18421922;32;20125;-55
2022/06/25 02:06:42;;;;;;;2.83;1.58;;;;;;;22.92;54.15;100016.28;18421151;32;20127;-55
2022/06/25 02:16:45;;;;;;;3.55;1.70;;;;;;;22.63;55.95;100019.75;18420812;32;20380;-55
2022/06/25 02:26:50;;;;;;;2.85;1.90;;;;;;;22.41;56.51;100028.06;18441770;31;20087;-55
2022/06/25 02:36:53;;;;;;;4.12;1.65;;;;;;;22.44;55.87;100017.25;18692817;31;20122;-55
2022/06/25 02:46:58;;;;;;;4.85;1.95;;;;;;;22.34;55.11;100000.13;18691135;31;20667;-55
2022/06/25 03:07:24;;;;;;;3.93;1.70;;;;;;;22.43;53.51;100027.06;18689740;31;20110;-55
2022/06/25 03:17:34;;;;;;;3.60;2.05;;;;;;;22.22;54.27;100017.63;18690391;31;20091;-55
2022/06/25 03:27:39;;;;;;;2.87;1.37;;;;;;;22.20;53.47;100031.03;18644613;31;20149;-55
2022/06/25 03:37:43;;;;;;;3.67;1.90;;;;;;;22.30;51.86;100020.72;18416821;32;20078;-55
2022/06/25 03:47:51;;;;;;;4.18;1.80;;;;;;;22.22;53.09;100022.94;18416335;32;20392;-55
2022/06/25 03:57:54;;;;;;;3.92;1.62;;;;;;;22.32;53.15;100021.47;18415708;32;20368;-55
2022/06/25 04:07:59;;;;;;;3.72;2.03;;;;;;;22.38;50.60;100029.09;18448278;31;20121;-55
2022/06/25 04:18:02;;;;;;;3.28;1.58;;;;;;;22.86;49.66;100041.44;18425348;32;20104;-55
2022/06/25 04:38:28;;;;;;;3.35;1.60;;;;;;;24.21;46.16;100043.84;18424438;32;20084;-55
2022/06/25 04:48:33;;;;;;;4.18;1.60;;;;;;;23.65;45.74;100036.69;18423652;32;20437;-55
2022/06/25 04:58:37;;;;;;;1.92;1.35;;;;;;;24.33;47.59;100038.66;18424678;32;20097;-55
2022/06/25 05:08:41;;;;;;;3.37;1.60;;;;;;;24.47;48.09;100045.75;18423251;32;20092;-55
2022/06/25 05:18:46;;;;;;;3.00;1.40;;;;;;;24.57;48.92;100064.66;18422021;32;20096;-55
2022/06/25 05:28:51;;;;;;;3.28;1.30;;;;;;;24.82;48.47;100068.38;18422383;31;20089;-55
2022/06/25 05:38:54;;;;;;;2.40;1.45;;;;;;;25.23;45.90;100083.41;18422485;32;20090;-55
2022/06/25 05:48:59;;;;;;;4.62;1.70;;;;;;;25.54;42.83;100081.28;18422993;32;20088;-55
2022/06/25 05:59:02;;;;;;;2.67;1.37;;;;;;;25.66;42.47;100078.69;18421542;32;20097;-55
2022/06/25 06:09:12;;;;;;;6.90;1.80;;;;;;;25.86;39.56;100086.12;18421021;32;20093;-55
2022/06/25 06:19:16;;;;;;;3.05;1.42;;;;;;;25.98;40.67;100088.88;18419585;32;20101;-55
2022/06/25 06:29:20;;;;;;;3.22;1.55;;;;;;;26.14;37.58;100091.31;18419079;31;20326;-55
2022/06/25 06:39:24;;;;;;;3.60;1.60;;;;;;;26.62;37.13;100095.00;18419506;32;20161;-55
2022/06/25 06:49:28;;;;;;;2.85;1.60;;;;;;;26.74;38.16;100099.44;18419210;32;20111;-55
2022/06/25 06:59:32;;;;;;;3.65;1.45;;;;;;;27.47;35.43;100091.22;18473204;31;20464;-55
2022/06/25 07:09:36;;;;;;;3.00;1.58;;;;;;;27.61;35.13;100094.69;18418122;32;20144;-55
2022/06/25 07:19:39;;;;;;;3.58;1.50;;;;;;;28.75;33.71;100098.00;18417947;32;20088;-55
2022/06/25 07:29:44;;;;;;;3.05;1.70;;;;;;;28.63;34.27;100099.88;18416927;31;20104;-55
2022/06/25 07:39:47;;;;;;;5.75;1.75;;;;;;;29.55;32.14;100092.19;18420416;32;20115;-56
2022/06/25 08:00:13;;;;;;;2.83;1.70;;;;;;;30.19;29.25;100092.00;18479215;31;20136;-55
2022/06/25 08:10:18;;;;;;;3.75;1.70;;;;;;;30.62;28.93;100095.28;18395722;32;20372;-56
2022/06/25 08:20:22;;;;;;;3.20;1.70;;;;;;;31.14;28.56;100110.28;18430197;31;75410;-57
2022/06/25 08:30:27;;;;;;;4.18;2.10;;;;;;;30.72;28.96;100112.34;18361849;32;20101;-56
2022/06/25 08:40:31;;;;;;;3.03;1.60;;;;;;;31.42;28.73;100116.66;18372926;32;20097;-56
2022/06/25 08:50:37;;;;;;;1.90;1.33;;;;;;;31.64;28.04;100125.37;18356798;32;20347;-56
2022/06/25 09:00:41;;;;;;;4.75;2.00;;;;;;;31.67;27.78;100119.66;18424065;31;20876;-56
2022/06/25 09:10:47;;;;;;;4.82;1.83;;;;;;;30.95;32.18;100132.75;18420012;32;20365;-56
2022/06/25 09:20:59;;;;;;;6.40;1.95;;;;;;;31.62;31.48;100130.06;18473232;31;20101;-56
2022/06/25 09:31:04;;;;;;;5.20;2.10;;;;;;;31.51;33.81;100124.84;18400222;31;20093;-56
2022/06/25 09:41:07;;;;;;;5.25;2.10;;;;;;;31.66;32.00;100126.06;18421897;31;20097;-56
2022/06/25 09:51:13;;;;;;;5.82;2.25;;;;;;;31.96;31.83;100116.00;18418135;32;20140;-56
2022/06/25 10:01:18;;;;;;;3.33;2.00;;;;;;;32.57;31.80;100115.50;18398510;32;20174;-56
2022/06/25 10:11:24;;;;;;;6.53;2.30;;;;;;;33.34;31.55;100114.94;18356381;32;20459;-56
2022/06/25 10:21:27;;;;;;;4.57;2.30;;;;;;;34.03;31.55;100111.44;18355518;32;20089;-56
2022/06/25 10:31:32;;;;;;;3.80;1.80;;;;;;;34.08;32.21;100100.12;18385932;32;20093;-56
2022/06/25 10:52:05;;;;;;;5.05;2.00;;;;;;;34.67;31.53;100087.50;18377320;32;20094;-56
2022/06/25 11:02:10;;;;;;;3.30;1.90;;;;;;;34.53;31.54;100073.63;18416970;32;20392;-56
2022/06/25 11:12:15;;;;;;;4.32;1.80;;;;;;;34.10;31.49;100078.28;18471180;31;20101;-55
2022/06/25 11:22:18;;;;;;;3.62;1.87;;;;;;;33.32;33.43;100076.41;18427713;32;20127;-56
2022/06/25 11:32:30;;;;;;;3.70;1.73;;;;;;;33.79;32.70;100079.69;18425536;32;20121;-55
2022/06/25 11:42:33;;;;;;;4.85;1.73;;;;;;;34.30;31.53;100076.12;18479799;31;20354;-56
2022/06/25 11:52:42;;;;;;;4.45;1.55;;;;;;;34.62;31.09;100077.19;18425422;32;20161;-56
2022/06/25 12:02:46;;;;;;;3.60;1.60;;;;;;;34.52;32.20;100068.34;18424780;32;20085;-55
2022/06/25 12:12:51;;;;;;;2.55;1.50;;;;;;;34.41;30.00;100061.41;18424368;32;20089;-56
2022/06/25 12:22:57;;;;;;;3.78;1.58;;;;;;;34.68;29.46;100048.59;18424352;32;20107;-55
2022/06/25 12:33:06;;;;;;;2.17;1.15;;;;;;;35.01;29.54;100040.37;18422417;32;20162;-55
2022/06/25 12:43:10;;;;;;;;;;;;;;;34.77;29.38;100028.59;18418878;32;20097;-55
2022/06/25 12:53:16;;;;;;;1.40;1.00;;;;;;;35.07;29.20;100017.19;18388462;32;20250;-56
2022/06/25 13:03:19;;;;;;;2.42;0.80;;;;;;;34.89;29.31;100014.66;18425838;31;20114;-55
2022/06/25 13:13:24;;;;;;;1.98;1.00;;;;;;;34.89;28.94;100017.38;18367049;32;20102;-55
2022/06/25 13:23:27;;;;;;;0.80;0.73;;;;;;;34.75;28.90;100029.78;18357841;32;20729;-55
2022/06/25 13:33:33;;;;;;;1.77;0.90;;;;;;;34.62;28.34;100028.41;18359939;32;20101;-55
2022/06/25 13:43:37;;;;;;;2.10;0.85;;;;;;;34.88;28.41;100024.66;18401059;32;20115;-56
2022/06/25 13:53:41;;;;;;;0.98;0.80;;;;;;;35.07;27.61;100015.34;18385965;32;20438;-56
2022/06/25 14:03:44;;;;;;;2.12;0.80;;;;;;;35.10;28.10;100012.25;18386344;32;20096;-56
2022/06/25 14:13:50;;;;;;;1.90;0.80;;;;;;;34.61;28.43;100015.88;18369045;32;20105;-55
2022/06/25 14:23:53;;;;;;;1.65;0.90;;;;;;;34.29;28.38;100025.69;18361830;32;20086;-56
2022/06/25 14:33:58;;;;;;;1.08;0.75;;;;;;;33.90;29.34;100060.44;18430179;31;20469;-56
2022/06/25 14:44:01;;;;;;;0.95;0.70;;;;;;;33.87;28.88;100082.44;18385580;32;20142;-56
2022/06/25 14:54:06;;;;;;;1.27;0.80;;;;;;;33.13;31.13;100092.84;18364994;32;20119;-56
2022/06/25 15:04:09;;;;;;;3.58;0.80;;;;;;;32.31;31.83;100108.16;18392051;32;20086;-56
2022/06/25 15:14:15;;;;;;;8.82;1.37;;;;;;;27.50;29.92;100157.97;18349558;32;20111;-56
2022/06/25 15:24:18;;;;;;;8.52;1.67;;;;;;;26.86;31.96;100175.31;18348445;32;20369;-56
2022/06/25 15:34:23;;;;;;;3.12;1.10;;;;;;;26.80;40.17;100199.84;18352541;32;20522;-56
2022/06/25 15:44:26;;;;;;;3.92;1.23;;;;;;;23.38;51.85;100218.56;18352588;32;20097;-56
2022/06/25 15:54:31;;;;;;;2.53;1.62;;;;;;;23.98;59.71;100280.72;18404374;31;20105;-56
2022/06/25 16:04:34;;;;;;;2.65;1.25;;;;;;;23.77;61.72;100244.72;18358109;32;20449;-56
2022/06/25 16:14:39;;;;;;;2.62;1.17;;;;;;;23.73;61.61;100230.72;18413781;31;20115;-56
2022/06/25 16:24:42;;;;;;;3.17;1.60;;;;;;;23.85;62.15;100239.78;18356780;32;20125;-56
2022/06/25 16:34:47;;;;;;;1.65;1.10;;;;;;;24.17;63.48;100239.63;18360536;32;20093;-56
2022/06/25 16:44:50;;;;;;;2.72;0.98;;;;;;;24.16;62.37;100221.09;18360772;32;20101;-56
2022/06/25 16:54:55;;;;;;;2.60;1.23;;;;;;;24.33;56.53;100222.69;18360093;32;20111;-56
2022/06/25 17:04:58;;;;;;;2.17;1.10;;;;;;;24.18;56.63;100217.34;18359851;32;20097;-56
2022/06/25 17:15:03;;;;;;;5.28;1.50;;;;;;;23.70;63.46;100193.59;18411922;31;20108;-56
2022/06/25 17:25:07;;;;;;;2.87;1.05;;;;;;;24.10;62.34;100185.84;18412961;31;20507;-54
2022/06/25 17:35:12;;;;;;;1.65;1.12;;;;;;;23.94;62.85;100185.91;18358239;32;20503;-56
2022/06/25 17:45:16;;;;;;;1.75;1.12;;;;;;;23.95;61.47;100168.97;18412331;31;20104;-55
2022/06/25 17:55:21;;;;;;;5.40;2.20;;;;;;;23.84;61.62;100139.47;18358827;32;20099;-55
2022/06/25 18:05:24;;;;;;;5.68;2.10;;;;;;;22.20;64.74;100140.03;18357351;32;20142;-55
2022/06/25 18:15:29;;;;;;;4.60;2.12;;;;;;;23.44;64.16;100149.91;18357783;31;20112;-55
2022/06/25 18:25:33;;;;;;;4.30;1.92;;;;;;;23.32;65.03;100130.19;18356268;32;20129;-55
2022/06/25 18:35:37;;;;;;;5.30;2.28;;;;;;;22.26;65.76;100168.91;18366112;32;20111;-55
2022/06/25 18:45:40;;;;;;;4.70;2.03;;;;;;;23.15;63.69;100174.59;18416885;32;20080;-55
2022/06/25 18:55:45;;;;;;;4.37;2.10;;;;;;;21.70;67.16;100194.94;18356876;32;20085;-55
2022/06/25 19:05:49;;;;;;;2.65;1.80;;;;;;;22.75;65.64;100216.84;18355436;32;20097;-55
2022/06/25 19:15:53;;;;;;;4.03;1.65;;;;;;;22.67;65.13;100199.50;18354667;32;20098;-55
2022/06/25 19:25:57;;;;;;;4.32;2.12;;;;;;;22.56;63.56;100208.06;18353975;32;20085;-55
2022/06/25 19:36:02;;;;;;;5.82;2.87;;;;;;;22.33;64.46;100225.25;18355959;31;20112;-55
2022/06/25 19:46:05;;;;;;;4.70;2.58;;;;;;;22.18;66.11;100238.44;18362864;32;20183;-55
2022/06/25 19:56:10;;;;;;;7.10;3.08;;;;;;;22.18;66.25;100249.09;18414843;31;20434;-55
2022/06/25 20:06:13;;;;;;;5.00;2.80;;;;;;;22.13;65.06;100236.97;18362286;32;20653;-55
2022/06/25 20:16:18;;;;;;;6.78;3.08;;;;;;;21.96;64.87;100233.41;18414098;31;20125;-55
2022/06/25 20:26:21;;;;;;;5.75;2.53;;;;;;;21.91;65.30;100240.78;18361301;32;20441;-55
2022/06/25 20:36:33;;;;;;;5.50;2.75;;;;;;;21.77;65.51;100246.81;18360700;32;20101;-55
2022/06/25 20:46:36;;;;;;;6.62;3.03;;;;;;;21.54;66.21;100262.09;18360192;32;20438;-55
2022/06/25 20:56:41;;;;;;;7.43;3.10;;;;;;;21.47;66.30;100269.50;18360269;32;20089;-55
2022/06/25 21:17:10;;;;;;;3.78;1.90;;;;;;;21.17;65.62;100259.47;18359516;32;20081;-55
2022/06/25 21:27:16;;;;;;;4.65;1.87;;;;;;;21.08;64.30;100270.53;18358661;32;20093;-55
2022/06/25 21:37:22;;;;;;;2.95;1.70;;;;;;;20.86;65.11;100245.00;18358310;32;20101;-55
2022/06/25 21:47:26;;;;;;;5.53;2.20;;;;;;;20.89;64.61;100250.19;18358235;32;20093;-55
2022/06/25 21:57:31;;;;;;;3.58;1.95;;;;;;;20.76;64.56;100231.31;18357058;32;20111;-55
2022/06/25 22:07:35;;;;;;;5.72;2.20;;;;;;;20.69;65.06;100239.66;18410475;31;20133;-55
2022/06/25 22:17:41;;;;;;;4.50;2.10;;;;;;;20.58;65.12;100241.03;18356638;32;20093;-55
2022/06/25 22:27:45;;;;;;;4.93;2.03;;;;;;;20.51;65.07;100248.38;18355065;32;20097;-55
2022/06/25 22:37:49;;;;;;;4.15;1.90;;;;;;;20.19;65.84;100241.88;18355558;32;20109;-55
2022/06/25 22:47:53;;;;;;;3.17;1.92;;;;;;;20.16;66.18;100236.75;18355265;32;20412;-55
2022/06/25 22:57:57;;;;;;;3.92;2.17;;;;;;;20.19;65.96;100242.75;18354617;32;20104;-55
2022/06/25 23:08:01;;;;;;;3.80;2.00;;;;;;;19.98;67.42;100251.69;18408461;31;20105;-55
2022/06/25 23:18:11;;;;;;;4.43;2.10;;;;;;;20.01;67.34;100241.78;18408054;32;20136;-55
2022/06/25 23:28:15;;;;;;;5.47;2.17;;;;;;;19.83;67.78;100240.78;18427199;31;20111;-55
2022/06/25 23:38:19;;;;;;;4.53;2.03;;;;;;;19.93;67.43;100243.91;18427037;32;20120;-55
2022/06/25 23:48:22;;;;;;;3.28;2.22;;;;;;;19.90;67.54;100244.00;18426839;32;20729;-56
2022/06/25 23:58:27;;;;;;;3.30;1.87;;;;;;;20.18;66.78;100237.53;18426443;32;20525;-55
